Time;durP1;ratioP1;P1;durP2;ratioP2;P2;SDS_P1;SDS_P2;PMS_P1;PMS_P2;Temp;Humidity;BMP_temperature;BMP_pressure;BME280_temperature;BME280_humidity;BME280_pressure;Samples;Min_cycle;Max_cycle;Signal;HPM_P1;HPM_P2
2021/04/25 00:05:54;;;;;;;0.87;0.87;;;14.60;99.90;;;;;;20617535;28;20204;-74
2021/04/25 00:15:57;;;;;;;0.60;0.60;;;14.20;99.90;;;;;;20614980;28;20199;-75
2021/04/25 00:26:01;;;;;;;1.03;0.83;;;14.10;99.90;;;;;;20624896;28;20469;-76
2021/04/25 00:36:05;;;;;;;0.83;0.83;;;13.80;99.90;;;;;;20614462;28;20305;-75
2021/04/25 00:46:08;;;;;;;1.13;0.97;;;13.80;99.90;;;;;;20629612;28;20223;-73
2021/04/25 00:56:14;;;;;;;0.97;0.93;;;13.50;99.90;;;;;;20612300;28;20196;-74
2021/04/25 01:06:17;;;;;;;0.50;0.50;;;13.50;99.90;;;;;;20633246;28;20286;-77
2021/04/25 01:16:21;;;;;;;1.77;1.27;;;13.20;99.90;;;;;;20634084;28;20657;-79
2021/04/25 01:26:24;;;;;;;0.63;0.63;;;13.20;99.90;;;;;;20635383;28;20294;-79
2021/04/25 01:36:27;;;;;;;1.43;0.80;;;12.90;99.90;;;;;;20631886;28;20315;-81
2021/04/25 01:46:30;;;;;;;0.53;0.43;;;12.70;99.90;;;;;;20629424;28;20306;-77
2021/04/25 01:56:34;;;;;;;0.20;0.20;;;12.80;99.90;;;;;;20629822;28;20258;-79
2021/04/25 02:06:39;;;;;;;0.40;0.30;;;12.90;99.90;;;;;;20632662;28;20203;-83
2021/04/25 02:16:42;;;;;;;0.20;0.20;;;12.80;99.90;;;;;;20644248;28;20215;-85
2021/04/25 02:26:45;;;;;;;0.87;0.70;;;12.70;99.90;;;;;;20626822;28;20846;-73
2021/04/25 02:36:50;;;;;;;0.30;0.30;;;12.60;99.90;;;;;;20623869;28;20563;-75
2021/04/25 02:46:54;;;;;;;0.57;0.57;;;12.70;99.90;;;;;;20622867;28;20302;-78
2021/04/25 02:56:57;;;;;;;0.20;0.20;;;12.60;99.90;;;;;;20631546;28;20699;-81
2021/04/25 03:07:00;;;;;;;0.40;0.40;;;12.70;99.90;;;;;;20643911;28;20290;-78
2021/04/25 03:17:03;;;;;;;0.70;0.70;;;12.80;99.90;;;;;;20645358;28;20302;-83
2021/04/25 03:27:07;;;;;;;1.23;1.13;;;13.10;99.90;;;;;;20644220;28;20460;-82
2021/04/25 03:37:09;;;;;;;2.93;0.73;;;12.80;99.90;;;;;;20630470;28;20237;-77
2021/04/25 03:47:13;;;;;;;0.77;0.50;;;12.60;99.90;;;;;;20618188;28;20553;-75
2021/04/25 03:57:21;;;;;;;0.87;0.80;;;12.60;99.90;;;;;;20618163;28;20305;-76
2021/04/25 04:07:25;;;;;;;1.07;0.97;;;12.60;99.90;;;;;;20560241;23;20234;-75
2021/04/25 04:17:27;;;;;;;4.03;1.70;;;12.40;99.90;;;;;;20534168;28;20247;-76
2021/04/25 04:27:31;;;;;;;1.00;0.80;;;12.40;99.90;;;;;;20535603;28;20206;-74
2021/04/25 04:37:33;;;;;;;0.43;0.43;;;12.60;99.90;;;;;;20532674;28;20322;-76
2021/04/25 04:47:37;;;;;;;0.90;0.90;;;12.70;99.90;;;;;;20516852;28;20200;-76
2021/04/25 04:57:39;;;;;;;1.03;0.67;;;12.50;99.90;;;;;;20530951;28;20294;-76
2021/04/25 05:07:43;;;;;;;1.27;1.03;;;12.70;99.90;;;;;;20532375;28;20633;-74
2021/04/25 05:17:46;;;;;;;3.30;1.13;;;12.90;99.90;;;;;;20530133;28;20232;-76
2021/04/25 05:27:49;;;;;;;2.57;1.10;;;13.20;99.90;;;;;;20531835;28;20638;-74
2021/04/25 05:37:52;;;;;;;2.10;0.77;;;13.40;99.90;;;;;;20527964;28;20307;-75
2021/04/25 05:47:57;;;;;;;0.20;0.17;;;13.60;99.90;;;;;;20534469;28;20293;-74
2021/04/25 05:58:00;;;;;;;1.03;0.90;;;13.80;99.90;;;;;;20544459;28;20397;-75
2021/04/25 06:08:04;;;;;;;4.90;1.60;;;13.90;99.90;;;;;;20546286;28;20298;-75
2021/04/25 06:18:07;;;;;;;0.70;0.50;;;14.00;99.90;;;;;;20544282;28;20239;-75
2021/04/25 06:28:10;;;;;;;0.70;0.70;;;14.40;99.90;;;;;;20544726;28;20201;-75
2021/04/25 06:38:13;;;;;;;0.63;0.63;;;14.30;99.90;;;;;;20542889;28;20226;-75
2021/04/25 06:48:17;;;;;;;0.30;0.20;;;14.60;99.90;;;;;;20542838;28;20204;-77
2021/04/25 06:58:19;;;;;;;0.20;0.20;;;15.00;99.90;;;;;;20539598;28;20363;-75
2021/04/25 07:08:24;;;;;;;1.07;1.00;;;15.20;99.90;;;;;;20540983;28;20231;-74
2021/04/25 07:18:27;;;;;;;0.60;0.60;;;15.70;99.90;;;;;;20538323;28;20584;-75
2021/04/25 07:28:30;;;;;;;1.50;1.23;;;16.00;99.90;;;;;;20539907;28;20220;-72
2021/04/25 07:38:33;;;;;;;3.83;0.93;;;16.40;99.90;;;;;;20536622;28;20220;-71
2021/04/25 07:48:36;;;;;;;1.07;0.70;;;16.70;99.90;;;;;;20537853;28;20468;-74
2021/04/25 07:58:39;;;;;;;0.97;0.97;;;17.10;99.90;;;;;;20512545;28;20220;-73
2021/04/25 08:08:43;;;;;;;18.73;1.83;;;16.90;99.90;;;;;;20528341;28;20267;-73
2021/04/25 08:18:45;;;;;;;0.73;0.67;;;16.70;99.90;;;;;;20532763;28;20228;-73
2021/04/25 08:28:51;;;;;;;0.87;0.87;;;16.50;99.90;;;;;;20532911;28;20215;-73
2021/04/25 08:38:54;;;;;;;1.80;1.67;;;17.00;99.90;;;;;;20515861;28;20232;-73
2021/04/25 08:48:58;;;;;;;1.10;1.00;;;16.90;99.90;;;;;;20532695;28;20528;-72
2021/04/25 08:59:02;;;;;;;1.67;1.20;;;16.60;99.90;;;;;;20530177;28;20239;-72
2021/04/25 09:09:07;;;;;;;1.17;0.83;;;16.60;99.90;;;;;;20531912;28;20234;-73
2021/04/25 09:19:10;;;;;;;6.50;0.80;;;16.60;99.90;;;;;;20528201;28;20729;-74
2021/04/25 09:29:14;;;;;;;2.20;1.37;;;16.60;99.90;;;;;;20528692;28;20203;-75
2021/04/25 09:39:17;;;;;;;3.25;1.65;;;16.80;99.90;;;;;;20522598;28;20507;-73
2021/04/25 09:49:39;;;;;;;0.90;0.87;;;17.10;99.90;;;;;;20528996;28;20451;-72
2021/04/25 09:59:51;;;;;;;1.00;1.00;;;18.70;99.90;;;;;;20526496;28;20972;-72
2021/04/25 10:10:10;;;;;;;8.10;1.47;;;19.70;99.90;;;;;;20512324;28;20340;-72
2021/04/25 10:20:15;;;;;;;0.50;0.50;;;19.70;99.90;;;;;;20526083;28;20648;-76
2021/04/25 10:30:20;;;;;;;0.43;0.43;;;20.40;99.90;;;;;;20524528;28;20208;-73
2021/04/25 10:40:29;;;;;;;1.00;0.60;;;20.60;99.90;;;;;;20541758;28;20305;-73
2021/04/25 10:50:43;;;;;;;0.30;0.30;;;20.10;99.90;;;;;;20522801;28;20195;-73
2021/04/25 11:00:46;;;;;;;1.63;1.00;;;20.30;99.90;;;;;;20534693;28;20240;-74
2021/04/25 11:10:51;;;;;;;1.73;1.00;;;20.40;99.90;;;;;;20538225;28;20196;-74
2021/04/25 11:20:54;;;;;;;0.77;0.70;;;21.50;99.90;;;;;;20538069;28;20588;-72
2021/04/25 11:30:57;;;;;;;0.73;0.70;;;21.90;99.90;;;;;;20538147;28;20389;-71
2021/04/25 11:41:05;;;;;;;0.90;0.90;;;22.10;99.90;;;;;;20534522;28;20223;-73
2021/04/25 11:51:14;;;;;;;0.70;0.70;;;23.00;99.90;;;;;;20518220;28;20245;-73
2021/04/25 12:01:22;;;;;;;0.67;0.67;;;22.70;99.90;;;;;;20534175;28;20277;-73
2021/04/25 12:11:26;;;;;;;1.58;0.80;;;23.10;99.90;;;;;;20534625;28;20207;-73
2021/04/25 12:21:29;;;;;;;1.20;0.50;;;23.70;99.90;;;;;;20535250;28;20228;-73
2021/04/25 12:31:43;;;;;;;3.45;0.85;;;24.70;99.90;;;;;;20534026;28;20196;-73
2021/04/25 12:41:47;;;;;;;0.95;0.77;;;24.70;99.90;;;;;;20532569;28;20228;-73
2021/04/25 12:51:51;;;;;;;7.53;1.33;;;24.50;99.90;;;;;;20532293;28;20199;-74
2021/04/25 13:02:07;;;;;;;0.52;0.50;;;26.10;99.90;;;;;;20531628;28;20736;-72
2021/04/25 13:12:19;;;;;;;3.22;0.88;;;26.40;99.90;;;;;;20532772;28;20231;-74
2021/04/25 13:22:22;;;;;;;0.77;0.50;;;26.10;99.90;;;;;;20529922;28;20625;-72
2021/04/25 13:32:26;;;;;;;0.88;0.43;;;26.80;99.90;;;;;;20526968;28;20211;-72
2021/04/25 13:42:29;;;;;;;1.10;0.80;;;26.30;99.90;;;;;;20516830;28;20236;-72
2021/04/25 14:14:49;;;;;;;0.65;0.50;;;27.90;99.90;;;;;;20608357;28;20582;-74
2021/04/25 14:24:52;;;;;;;1.15;1.00;;;28.30;99.90;;;;;;20626434;28;20231;-72
2021/04/25 14:34:55;;;;;;;0.30;0.30;;;27.30;99.90;;;;;;20622483;28;20337;-73
2021/04/25 14:44:58;;;;;;;1.27;0.90;;;27.60;99.90;;;;;;20620745;28;20803;-71
2021/04/25 14:55:02;;;;;;;1.15;0.73;;;28.50;99.90;;;;;;20620757;28;20684;-73
2021/04/25 15:05:06;;;;;;;0.65;0.40;;;27.40;99.90;;;;;;20600053;28;20781;-72
2021/04/25 15:15:12;;;;;;;1.02;0.93;;;25.20;99.90;;;;;;20538164;28;20579;-74
2021/04/25 15:25:14;;;;;;;0.77;0.60;;;24.70;99.90;;;;;;20535815;28;20645;-75
2021/04/25 15:35:18;;;;;;;0.38;0.32;;;26.50;99.90;;;;;;20536752;28;20200;-74
2021/04/25 15:45:22;;;;;;;0.63;0.55;;;27.40;99.90;;;;;;20535181;28;21072;-73
2021/04/25 15:55:26;;;;;;;0.63;0.50;;;25.60;99.90;;;;;;20546501;28;20486;-72
2021/04/25 16:05:29;;;;;;;0.75;0.70;;;24.60;99.90;;;;;;20576055;28;20246;-73
2021/04/25 16:15:33;;;;;;;1.90;0.70;;;23.90;99.90;;;;;;20605161;28;20274;-74
2021/04/25 16:25:36;;;;;;;0.40;0.40;;;22.60;99.90;;;;;;20614585;28;20379;-74
2021/04/25 16:35:40;;;;;;;0.53;0.53;;;21.80;99.90;;;;;;20611792;28;20294;-72
2021/04/25 16:45:42;;;;;;;1.03;0.90;;;21.70;99.90;;;;;;20610773;28;20384;-76
2021/04/25 16:55:46;;;;;;;0.73;0.47;;;22.10;99.90;;;;;;20612621;28;20196;-73
2021/04/25 17:05:49;;;;;;;0.70;0.70;;;22.00;99.90;;;;;;20567657;28;20239;-73
2021/04/25 17:15:53;;;;;;;0.60;0.60;;;22.00;99.90;;;;;;20611888;28;20278;-75
2021/04/25 17:25:56;;;;;;;0.87;0.53;;;22.60;99.90;;;;;;20611970;28;20756;-76
2021/04/25 17:35:59;;;;;;;0.77;0.60;;;21.50;99.90;;;;;;20609035;28;20214;-74
2021/04/25 17:46:02;;;;;;;1.27;0.97;;;20.50;99.90;;;;;;20612358;28;20237;-76
2021/04/25 17:56:07;;;;;;;0.40;0.40;;;19.30;99.90;;;;;;20607481;28;20206;-75
2021/04/25 18:06:10;;;;;;;0.30;0.30;;;19.30;99.90;;;;;;20550154;28;20228;-76
2021/04/25 18:16:14;;;;;;;1.00;0.97;;;18.90;99.90;;;;;;20526355;28;20200;-73
2021/04/25 18:26:16;;;;;;;0.97;0.43;;;18.70;99.90;;;;;;20526333;28;20228;-75
2021/04/25 18:36:21;;;;;;;1.37;1.27;;;18.60;99.90;;;;;;20594241;28;20332;-75
2021/04/25 18:46:23;;;;;;;0.57;0.57;;;18.40;99.90;;;;;;20606838;28;20219;-76
2021/04/25 18:56:28;;;;;;;1.73;0.43;;;18.40;99.90;;;;;;20591592;28;20252;-76
2021/04/25 19:06:31;;;;;;;0.70;0.50;;;18.50;99.90;;;;;;20616778;28;20250;-78
2021/04/25 19:16:35;;;;;;;0.77;0.77;;;18.20;99.90;;;;;;20617942;28;20203;-77
2021/04/25 19:26:39;;;;;;;0.50;0.50;;;18.10;99.90;;;;;;20622744;28;20373;-78
2021/04/25 19:36:43;;;;;;;0.73;0.73;;;18.10;99.90;;;;;;20619276;28;20218;-76
2021/04/25 19:46:46;;;;;;;2.20;0.80;;;18.10;99.90;;;;;;20603227;28;20262;-77
2021/04/25 19:56:49;;;;;;;0.93;0.50;;;18.00;99.90;;;;;;20612072;28;20282;-77
2021/04/25 20:06:52;;;;;;;0.47;0.47;;;17.80;99.90;;;;;;20663346;28;20599;-75
2021/04/25 20:16:55;;;;;;;0.80;0.80;;;17.80;99.90;;;;;;20696114;28;20202;-74
2021/04/25 20:26:59;;;;;;;0.73;0.67;;;17.80;99.90;;;;;;20697902;28;20492;-74
2021/04/25 20:37:02;;;;;;;0.67;0.40;;;17.70;99.90;;;;;;20695456;28;20199;-74
2021/04/25 20:47:05;;;;;;;0.47;0.47;;;17.60;99.90;;;;;;20696378;28;20241;-75
2021/04/25 20:57:10;;;;;;;0.80;0.80;;;17.50;99.90;;;;;;20675662;28;20198;-75
2021/04/25 21:07:12;;;;;;;1.20;0.90;;;17.50;99.90;;;;;;20624453;28;20625;-75
2021/04/25 21:17:16;;;;;;;0.57;0.57;;;17.50;99.90;;;;;;20608723;28;20223;-75
2021/04/25 21:27:18;;;;;;;2.67;0.43;;;17.40;99.90;;;;;;20611283;28;20583;-76
2021/04/25 21:37:22;;;;;;;0.50;0.50;;;17.50;99.90;;;;;;20607423;28;20568;-74
2021/04/25 21:47:25;;;;;;;0.53;0.43;;;17.50;99.90;;;;;;20611134;28;20228;-74
2021/04/25 21:57:28;;;;;;;0.63;0.53;;;17.40;99.90;;;;;;20608237;28;20680;-74
2021/04/25 22:07:31;;;;;;;0.43;0.40;;;17.50;99.90;;;;;;20678273;28;20687;-73
2021/04/25 22:17:34;;;;;;;1.07;0.43;;;17.40;99.90;;;;;;20689899;28;20211;-73
2021/04/25 22:27:38;;;;;;;0.60;0.43;;;17.40;99.90;;;;;;20682671;28;20219;-73
2021/04/25 22:37:42;;;;;;;0.40;0.40;;;17.40;99.90;;;;;;20623297;28;20196;-75
2021/04/25 22:47:46;;;;;;;0.40;0.40;;;17.40;99.90;;;;;;20623334;28;20255;-76
2021/04/25 22:57:50;;;;;;;0.53;0.53;;;17.50;99.90;;;;;;20592462;28;20279;-75
2021/04/25 23:07:52;;;;;;;0.30;0.27;;;17.60;99.90;;;;;;20598861;28;20254;-77
2021/04/25 23:17:56;;;;;;;1.13;1.03;;;17.50;99.90;;;;;;20578266;28;20200;-78
2021/04/25 23:27:59;;;;;;;0.37;0.33;;;17.50;99.90;;;;;;20581496;28;20223;-77
2021/04/25 23:38:02;;;;;;;0.50;0.40;;;17.50;99.90;;;;;;20575031;28;20203;-77
2021/04/25 23:48:06;;;;;;;0.67;0.43;;;17.50;99.90;;;;;;20582551;28;20199;-76
2021/04/25 23:58:09;;;;;;;0.40;0.30;;;17.30;99.90;;;;;;20556475;28;20203;-76
